Time;durP1;ratioP1;P1;durP2;ratioP2;P2;SDS_P1;SDS_P2;PMS_P1;PMS_P2;Temp;Humidity;BMP_temperature;BMP_pressure;BME280_temperature;BME280_humidity;BME280_pressure;Samples;Min_cycle;Max_cycle;Signal;HPM_P1;HPM_P2
2023/01/13 00:00:31;;;;;;;32.83;18.15;;;17.40;76.70;;;18.51;42.90;98549.88;5096775;27;20043;-80
2023/01/13 00:03:17;;;;;;;38.40;21.00;;;17.30;76.80;;;18.55;42.77;98539.88;5088061;27;20059;-80
2023/01/13 00:05:43;;;;;;;39.15;21.65;;;17.30;76.40;;;18.54;42.85;98535.50;5087663;27;20138;-80
2023/01/13 00:08:09;;;;;;;35.05;19.23;;;17.30;76.70;;;18.56;42.75;98524.97;5078787;27;20433;-80
2023/01/13 00:10:36;;;;;;;38.78;22.17;;;17.30;76.70;;;18.54;42.78;98527.25;5113242;27;20043;-80
2023/01/13 00:13:03;;;;;;;35.80;19.55;;;17.40;76.70;;;18.53;42.54;98520.16;5076827;27;20034;-80
2023/01/13 00:15:29;;;;;;;37.17;21.45;;;17.30;76.60;;;18.54;42.88;98522.56;5077268;27;20047;-80
2023/01/13 00:17:55;;;;;;;38.47;18.70;;;17.30;76.60;;;18.55;42.65;98526.13;5075806;27;20046;-80
2023/01/13 00:20:21;;;;;;;31.60;18.45;;;17.30;76.60;;;18.50;42.84;98521.63;5079228;27;20035;-80
2023/01/13 00:22:47;;;;;;;41.53;20.40;;;17.30;76.60;;;18.49;42.81;98517.25;5089197;27;20092;-80
2023/01/13 00:25:14;;;;;;;38.03;21.35;;;17.40;76.60;;;18.54;42.64;98510.75;5079437;27;20035;-80
2023/01/13 00:27:40;;;;;;;32.95;18.95;;;17.40;76.50;;;18.54;42.56;98517.06;5097872;27;20474;-80
2023/01/13 00:30:07;;;;;;;39.60;21.80;;;17.30;76.40;;;18.54;42.48;98517.06;5112150;27;20039;-80
2023/01/13 00:32:33;;;;;;;37.17;20.58;;;17.40;76.50;;;18.51;42.67;98511.44;5095115;27;20180;-80
2023/01/13 00:34:59;;;;;;;39.63;22.27;;;17.30;76.50;;;18.51;42.72;98525.16;5094484;27;20050;-80
2023/01/13 00:37:25;;;;;;;36.15;20.02;;;17.30;76.40;;;18.51;42.59;98516.94;5077746;27;20039;-80
2023/01/13 00:39:52;;;;;;;35.42;20.10;;;17.30;76.50;;;18.52;42.66;98524.03;5080417;27;20043;-80
2023/01/13 00:45:04;;;;;;;37.45;19.98;;;17.40;76.20;;;18.50;42.80;98509.84;5113479;28;20062;-80
2023/01/13 00:47:30;;;;;;;39.10;20.10;;;17.30;76.40;;;18.49;42.66;98503.53;5076491;28;20096;-80
2023/01/13 00:49:56;;;;;;;34.97;20.25;;;17.30;76.20;;;18.49;42.62;98505.47;5097169;28;20782;-80
2023/01/13 00:52:23;;;;;;;39.40;20.63;;;17.40;76.50;;;18.48;42.66;98509.38;5077136;27;20042;-80
2023/01/13 00:54:49;;;;;;;39.15;19.45;;;17.30;76.40;;;18.49;42.68;98513.72;5076700;28;20444;-80
2023/01/13 00:57:15;;;;;;;39.95;21.63;;;17.30;76.50;;;18.51;42.50;98516.94;5077775;27;20117;-80
2023/01/13 00:59:41;;;;;;;30.42;19.83;;;17.40;76.30;;;18.48;42.51;98525.84;5052637;28;20035;-80
2023/01/13 01:02:07;;;;;;;39.72;21.48;;;17.30;76.40;;;18.46;42.70;98525.38;5094534;28;20068;-80
2023/01/13 01:04:34;;;;;;;33.60;19.40;;;17.30;76.40;;;18.48;42.68;98520.34;5091864;28;20050;-80
2023/01/13 01:07:00;;;;;;;37.78;21.17;;;17.30;76.40;;;18.48;42.80;98521.16;5076010;28;20055;-80
2023/01/13 01:09:32;;;;;;;38.25;19.88;;;17.20;76.70;;;18.49;42.89;98517.25;5111267;28;20047;-80
2023/01/13 01:12:01;;;;;;;39.08;22.58;;;17.30;76.70;;;18.45;42.96;98516.31;5098604;28;20046;-80
2023/01/13 01:14:27;;;;;;;38.60;20.70;;;17.30;77.00;;;18.47;42.96;98515.97;5096472;28;20256;-80
2023/01/13 01:16:53;;;;;;;36.80;21.27;;;17.30;76.70;;;18.50;42.73;98504.34;5077720;28;20065;-80
2023/01/13 01:19:19;;;;;;;47.03;21.00;;;17.30;76.60;;;18.47;42.79;98505.81;5059696;27;20073;-80
2023/01/13 01:21:45;;;;;;;35.95;20.13;;;17.30;76.70;;;18.46;42.72;98503.41;5062693;28;20040;-80
2023/01/13 01:24:15;;;;;;;33.78;21.58;;;17.30;76.60;;;18.41;42.86;98496.94;5093071;28;20453;-80
2023/01/13 01:26:41;;;;;;;42.53;21.42;;;17.30;76.60;;;18.47;42.40;98492.09;5092812;28;20092;-80
2023/01/13 01:29:11;;;;;;;35.13;21.00;;;17.30;76.50;;;18.43;42.88;98488.38;5080168;28;20107;-80
2023/01/13 01:31:37;;;;;;;37.05;19.67;;;17.20;76.60;;;18.44;42.75;98488.06;5080190;28;20542;-80
2023/01/13 01:34:03;;;;;;;37.10;21.35;;;17.30;76.70;;;18.41;42.82;98488.72;5078071;28;20049;-80
2023/01/13 01:36:29;;;;;;;33.78;20.67;;;17.30;76.40;;;18.42;42.70;98484.03;5060050;28;20039;-80
2023/01/13 01:38:57;;;;;;;33.85;20.05;;;17.30;76.30;;;18.43;42.68;98475.44;5111854;28;20043;-80
2023/01/13 01:41:25;;;;;;;31.30;19.08;;;17.20;76.40;;;18.41;42.46;98474.19;5080026;28;20438;-80
2023/01/13 01:44:01;;;;;;;41.38;21.23;;;17.20;76.50;;;18.40;42.55;98473.38;5059983;28;20043;-80
2023/01/13 01:46:40;;;;;;;37.55;20.83;;;17.20;76.40;;;18.41;42.72;98472.22;5091770;28;20457;-80
2023/01/13 01:49:30;;;;;;;33.72;20.08;;;17.20;76.60;;;18.41;42.53;98468.69;5112453;28;20061;-80
2023/01/13 01:52:01;;;;;;;38.60;20.02;;;17.30;76.40;;;18.39;42.76;98469.03;5091110;28;20431;-80
2023/01/13 01:54:37;;;;;;;;;;;17.30;76.40;;;18.40;42.62;98469.84;5126121;28;20057;-80
2023/01/13 01:57:03;;;;;;;33.65;20.42;;;17.30;76.40;;;18.41;42.60;98460.44;5095152;28;20336;-80
2023/01/13 01:59:30;;;;;;;38.78;19.83;;;17.20;76.30;;;18.39;42.71;98457.22;5078867;28;20039;-80
2023/01/13 02:01:56;;;;;;;36.22;19.65;;;17.20;76.30;;;18.42;42.77;98453.84;5079386;28;20027;-80
2023/01/13 02:04:27;;;;;;;33.35;19.52;;;17.20;76.30;;;18.40;42.82;98456.91;5076488;28;20039;-80
2023/01/13 02:06:53;;;;;;;39.42;20.85;;;17.30;76.30;;;18.40;42.62;98450.63;5073099;28;20059;-80
2023/01/13 02:09:19;;;;;;;32.53;20.05;;;17.30;76.30;;;18.39;42.72;98444.31;5073955;27;20043;-80
2023/01/13 02:14:30;;;;;;;37.83;21.48;;;17.30;75.90;;;18.39;42.76;98433.34;5103008;27;20046;-80
2023/01/13 02:17:20;;;;;;;33.53;20.48;;;17.30;75.90;;;18.36;42.62;98433.97;5080478;27;20036;-80
2023/01/13 02:20:11;;;;;;;33.83;19.05;;;17.30;76.10;;;18.38;42.64;98436.41;5113825;27;20039;-80
2023/01/13 02:23:04;;;;;;;36.67;20.48;;;17.20;76.20;;;18.36;42.54;98433.19;5133268;27;20040;-80
2023/01/13 02:25:54;;;;;;;31.48;19.92;;;17.30;75.90;;;18.38;42.63;98434.47;5130149;27;20474;-80
2023/01/13 02:31:40;;;;;;;34.60;20.77;;;17.30;76.00;;;18.37;42.64;98437.56;5133137;27;20039;-80
2023/01/13 02:31:41;;;;;;;41.47;22.45;;;17.30;76.20;;;18.35;42.52;98435.13;5129626;27;20065;-80
2023/01/13 02:34:26;;;;;;;35.30;20.08;;;17.20;76.10;;;18.33;42.50;98429.16;5066886;27;20100;-80
2023/01/13 02:37:15;;;;;;;37.72;20.33;;;17.20;76.30;;;18.36;43.28;98420.25;5065811;27;20035;-80
2023/01/13 02:40:00;;;;;;;30.83;19.58;;;17.20;76.20;;;18.39;42.26;98419.63;5099360;27;20035;-80
2023/01/13 02:45:40;;;;;;;34.35;20.13;;;17.20;76.10;;;18.35;42.35;98415.13;5100882;27;20038;-80
2023/01/13 02:48:07;;;;;;;33.97;21.05;;;17.20;76.30;;;18.38;42.29;98412.50;5081959;27;20474;-80
2023/01/13 02:51:04;;;;;;;34.17;20.92;;;17.20;76.00;;;18.38;42.45;98412.50;5082107;27;20042;-80
2023/01/13 02:53:41;;;;;;;33.30;19.95;;;17.30;75.80;;;18.34;42.56;98408.81;5082453;27;20069;-80
2023/01/13 02:56:08;;;;;;;35.97;20.10;;;17.20;75.60;;;18.36;42.51;98414.75;5080164;27;20062;-80
2023/01/13 02:58:35;;;;;;;35.20;20.63;;;17.20;75.80;;;18.32;42.46;98410.28;5064761;27;20486;-80
2023/01/13 03:01:01;;;;;;;33.58;21.13;;;17.20;75.90;;;18.35;42.53;98412.38;5064129;27;20043;-80
2023/01/13 03:03:27;;;;;;;38.72;22.55;;;17.20;76.10;;;18.33;42.55;98403.66;5078803;27;20137;-80
2023/01/13 03:06:28;;;;;;;38.58;20.90;;;17.20;76.10;;;18.33;42.49;98392.69;5072059;27;20047;-80
2023/01/13 03:09:02;;;;;;;37.00;21.20;;;17.20;76.20;;;18.33;42.48;98396.22;5095227;27;20070;-80
2023/01/13 03:11:33;;;;;;;34.88;20.35;;;17.10;76.10;;;18.34;42.42;98402.50;5110913;27;20043;-80
2023/01/13 03:14:33;;;;;;;33.72;21.10;;;17.10;76.20;;;18.33;42.71;98390.72;5062705;27;20040;-80
2023/01/13 03:17:20;;;;;;;35.35;21.58;;;17.20;76.10;;;18.29;42.31;98388.97;5084284;27;20517;-80
2023/01/13 03:20:18;;;;;;;33.20;20.67;;;17.20;76.00;;;18.26;42.59;98400.63;5084512;28;20031;-80
2023/01/13 03:23:02;;;;;;;33.60;21.80;;;17.10;76.20;;;18.27;42.47;98394.81;5088265;27;20091;-80
2023/01/13 03:25:35;;;;;;;33.35;20.63;;;17.10;76.10;;;18.29;42.43;98394.47;5080901;27;20043;-80
2023/01/13 03:28:24;;;;;;;32.85;20.70;;;17.20;75.80;;;18.28;42.57;98388.19;5059977;27;20039;-80
2023/01/13 03:30:55;;;;;;;34.65;21.05;;;17.10;75.60;;;18.29;42.30;98389.78;5074308;27;20040;-80
2023/01/13 03:33:29;;;;;;;36.05;20.85;;;17.20;76.00;;;18.28;42.01;98387.38;5061099;27;20035;-80
2023/01/13 03:36:01;;;;;;;28.30;19.77;;;17.20;75.90;;;18.28;42.43;98379.16;5078396;27;20234;-80
2023/01/13 03:38:44;;;;;;;34.00;21.15;;;17.20;75.60;;;18.26;42.58;98384.97;5061962;27;20122;-80
2023/01/13 03:41:34;;;;;;;33.28;20.27;;;17.20;75.60;;;18.28;42.56;98379.16;5096816;27;20487;-80
2023/01/13 03:44:32;;;;;;;34.95;20.58;;;17.20;75.60;;;18.25;42.45;98375.13;5092789;27;20053;-80
2023/01/13 03:47:31;;;;;;;32.17;19.20;;;17.10;75.60;;;18.21;42.68;98374.97;5112540;27;20103;-80
2023/01/13 03:50:18;;;;;;;35.58;21.17;;;17.10;75.80;;;18.25;42.60;98382.56;5113712;27;20498;-80
2023/01/13 03:52:48;;;;;;;43.13;23.40;;;17.10;75.80;;;18.23;42.39;98382.91;5095567;27;20044;-80
2023/01/13 03:55:19;;;;;;;31.88;20.08;;;17.20;75.80;;;18.28;42.28;98371.72;5079099;27;20066;-80
2023/01/13 03:57:57;;;;;;;34.83;21.65;;;17.20;75.60;;;18.22;42.27;98378.56;5097883;27;20046;-80
2023/01/13 04:00:27;;;;;;;33.60;19.75;;;17.10;75.50;;;18.22;42.36;98367.56;5096350;27;20035;-81
2023/01/13 04:02:57;;;;;;;36.42;21.50;;;17.10;75.50;;;18.26;42.20;98367.69;5079913;27;20035;-80
2023/01/13 04:05:23;;;;;;;32.40;20.88;;;17.10;75.50;;;18.25;42.30;98368.84;5077071;27;20039;-80
2023/01/13 04:08:10;;;;;;;34.53;21.40;;;17.10;75.50;;;18.25;42.33;98361.41;5078998;27;20055;-80
2023/01/13 04:11:24;;;;;;;32.78;19.58;;;17.10;75.50;;;18.21;42.46;98374.19;5113425;27;20519;-80
2023/01/13 04:13:50;;;;;;;36.95;20.70;;;17.10;75.50;;;18.25;42.44;98374.34;5093746;27;20051;-80
2023/01/13 04:16:16;;;;;;;37.80;21.20;;;17.10;75.60;;;18.24;42.25;98376.25;5079921;27;20043;-79
2023/01/13 04:18:42;;;;;;;32.50;20.25;;;17.10;75.50;;;18.22;42.32;98371.13;5095604;27;20043;-80
2023/01/13 04:21:08;;;;;;;30.15;20.38;;;17.10;75.50;;;18.23;42.66;98377.41;5091625;27;20092;-80
2023/01/13 04:23:34;;;;;;;33.58;19.92;;;17.10;76.40;;;18.26;42.56;98367.69;5090538;27;20463;-80
2023/01/13 04:26:00;;;;;;;32.40;18.95;;;17.10;76.20;;;18.18;42.76;98369.38;5098103;27;20087;-80
2023/01/13 04:28:27;;;;;;;40.40;23.58;;;17.10;76.20;;;18.20;42.54;98372.59;5112163;27;20049;-80
2023/01/13 04:30:53;;;;;;;32.38;20.95;;;17.10;75.80;;;18.21;42.49;98377.72;5057650;27;20043;-80
2023/01/13 04:33:19;;;;;;;33.78;22.15;;;17.10;75.70;;;18.21;42.45;98363.19;5108092;27;20046;-80
2023/01/13 04:35:45;;;;;;;31.45;21.00;;;17.10;75.70;;;18.18;42.63;98372.91;5062221;27;20039;-80
2023/01/13 04:38:17;;;;;;;29.85;19.98;;;17.10;75.90;;;18.21;42.77;98371.44;5060184;27;20035;-80
2023/01/13 04:40:43;;;;;;;30.63;20.95;;;17.10;76.30;;;18.19;42.88;98374.53;5079045;28;20059;-80
2023/01/13 04:43:09;;;;;;;33.15;21.10;;;17.10;76.30;;;18.19;42.56;98373.69;5079285;27;20467;-80
2023/01/13 04:45:35;;;;;;;30.10;20.50;;;17.10;75.80;;;18.13;42.60;98366.81;5080965;27;20066;-80
2023/01/13 04:48:01;;;;;;;36.58;21.33;;;17.10;75.50;;;18.13;42.73;98364.06;5063954;27;20446;-80
2023/01/13 04:50:27;;;;;;;35.38;20.98;;;17.10;75.50;;;18.14;42.58;98368.41;5055997;27;20039;-80
2023/01/13 04:52:53;;;;;;;31.85;19.83;;;17.10;75.50;;;18.15;42.62;98368.09;5095749;27;20099;-80
2023/01/13 04:55:21;;;;;;;31.95;19.67;;;17.10;75.50;;;18.15;42.37;98367.28;5059085;27;20035;-80
2023/01/13 04:57:48;;;;;;;32.47;21.05;;;17.10;75.50;;;18.17;42.45;98374.06;5077604;27;20042;-80
2023/01/13 05:00:15;;;;;;;34.95;19.85;;;17.20;75.60;;;18.13;42.38;98372.31;5053704;28;20042;-80
2023/01/13 05:02:42;;;;;;;36.63;20.55;;;17.20;75.60;;;18.17;42.49;98365.03;5095731;28;20049;-80
2023/01/13 05:05:08;;;;;;;31.10;20.17;;;17.20;75.50;;;18.12;42.46;98363.28;5059224;28;20044;-80
2023/01/13 05:07:34;;;;;;;30.83;18.63;;;17.20;75.50;;;18.12;42.21;98363.28;5097109;28;20047;-80
2023/01/13 05:10:00;;;;;;;35.72;20.25;;;17.20;75.40;;;18.13;42.46;98358.59;5078252;28;20409;-80
2023/01/13 05:17:57;;;;;;;33.15;20.63;;;17.10;75.40;;;18.14;42.31;98371.16;5098084;28;20742;-80
2023/01/13 05:20:23;;;;;;;31.63;18.80;;;17.20;75.30;;;18.16;42.44;98366.94;5078098;28;20042;-80
2023/01/13 05:25:40;;;;;;;29.00;19.02;;;17.20;75.60;;;18.17;42.55;98378.75;5108996;28;20035;-80
2023/01/13 05:28:07;;;;;;;31.83;19.48;;;17.20;75.60;;;18.15;42.38;98372.78;5097132;28;20031;-80
2023/01/13 05:30:37;;;;;;;29.42;19.98;;;17.20;75.40;;;18.14;42.29;98372.00;5077702;28;20119;-80
2023/01/13 05:33:04;;;;;;;30.65;19.10;;;17.20;75.40;;;18.12;42.30;98371.50;5054298;27;20046;-80
2023/01/13 05:35:30;;;;;;;31.17;19.15;;;17.10;75.50;;;18.15;42.56;98370.84;5060647;28;20040;-80
2023/01/13 05:37:56;;;;;;;29.83;18.45;;;17.20;75.60;;;18.17;42.55;98370.50;5078250;28;20664;-80
2023/01/13 05:43:21;;;;;;;32.20;18.70;;;17.20;75.60;;;18.15;42.30;98367.28;5098138;27;20151;-80
2023/01/13 05:45:52;;;;;;;28.83;18.10;;;17.20;75.40;;;18.14;42.41;98371.16;5099615;27;20163;-80
2023/01/13 05:48:19;;;;;;;26.75;19.20;;;17.20;75.20;;;18.12;42.27;98374.25;5065988;27;20047;-80
2023/01/13 05:50:46;;;;;;;27.90;17.90;;;17.30;75.20;;;18.15;42.33;98372.78;5077129;27;20055;-80
2023/01/13 05:53:12;;;;;;;31.67;19.30;;;17.30;75.10;;;18.13;42.44;98372.31;5098271;27;20045;-80
2023/01/13 05:55:40;;;;;;;30.52;18.85;;;17.20;75.20;;;18.07;42.20;98370.91;5097992;27;20039;-80
2023/01/13 05:58:10;;;;;;;26.85;17.70;;;17.30;75.10;;;18.12;42.18;98373.47;5100907;27;20039;-80
2023/01/13 06:00:36;;;;;;;25.75;16.70;;;17.20;75.10;;;18.13;42.23;98383.28;5083365;27;20512;-80
2023/01/13 06:03:03;;;;;;;29.25;19.33;;;17.20;75.00;;;18.18;42.62;98372.91;5078501;27;20456;-80
2023/01/13 06:05:30;;;;;;;30.42;17.80;;;17.20;75.60;;;18.19;42.54;98376.44;5085698;27;20043;-80
2023/01/13 06:07:57;;;;;;;23.25;14.90;;;17.20;75.60;;;18.16;42.26;98379.88;5073587;27;20038;-80
2023/01/13 06:10:24;;;;;;;29.52;16.92;;;17.20;75.40;;;18.15;42.29;98378.28;5065415;27;20096;-80
2023/01/13 06:12:50;;;;;;;27.90;16.58;;;17.30;75.20;;;18.13;42.44;98375.06;5114061;27;20039;-80
2023/01/13 06:15:17;;;;;;;23.77;15.85;;;17.30;74.90;;;18.14;42.38;98384.88;5072976;27;20066;-80
2023/01/13 06:17:43;;;;;;;22.63;15.75;;;17.20;75.00;;;18.11;42.26;98377.31;5095838;27;20498;-79
2023/01/13 06:20:10;;;;;;;26.10;16.80;;;17.30;74.90;;;18.13;42.29;98386.84;5081644;27;20379;-80
2023/01/13 06:22:46;;;;;;;26.42;16.55;;;17.30;75.70;;;18.09;42.13;98374.94;5102972;27;20390;-80
2023/01/13 06:26:09;;;;;;;27.35;16.85;;;17.30;74.90;;;18.12;42.73;98376.19;5065838;27;20110;-80
2023/01/13 06:28:35;;;;;;;23.13;16.45;;;17.30;75.30;;;18.15;42.51;98378.28;5120515;27;20078;-80
2023/01/13 06:31:05;;;;;;;25.65;15.50;;;17.20;75.50;;;18.13;42.40;98383.28;5100573;27;20472;-81
2023/01/13 06:33:40;;;;;;;23.08;15.32;;;17.30;75.10;;;18.09;42.48;98382.34;5100683;27;20043;-80
2023/01/13 06:36:13;;;;;;;20.63;14.73;;;17.30;74.90;;;18.11;42.29;98382.81;5082393;27;20050;-80
2023/01/13 06:38:40;;;;;;;23.83;16.10;;;17.40;74.80;;;18.11;42.26;98385.56;5114451;27;20053;-80
2023/01/13 06:41:07;;;;;;;24.58;14.82;;;17.40;74.80;;;18.13;42.26;98380.53;5094836;27;20035;-81
2023/01/13 06:43:33;;;;;;;22.88;14.75;;;17.40;74.80;;;18.15;42.32;98383.75;5082914;27;20470;-80
2023/01/13 06:45:59;;;;;;;22.88;16.15;;;17.30;74.70;;;18.13;42.32;98380.53;5086011;27;20039;-80
2023/01/13 06:48:34;;;;;;;23.17;15.55;;;17.40;74.70;;;18.17;42.37;98382.28;5098116;27;20071;-80
2023/01/13 06:51:01;;;;;;;22.80;15.18;;;17.30;75.10;;;18.18;42.45;98383.09;5097130;27;20126;-80
2023/01/13 06:53:27;;;;;;;24.20;15.15;;;17.40;75.40;;;18.17;42.34;98374.06;5080997;27;20092;-80
2023/01/13 06:55:53;;;;;;;24.27;14.57;;;17.40;75.30;;;18.11;42.25;98382.81;5108121;27;20039;-80
2023/01/13 06:58:19;;;;;;;24.05;15.68;;;17.30;74.90;;;18.09;42.41;98376.84;5089671;27;20042;-80
2023/01/13 07:00:50;;;;;;;23.40;15.20;;;17.30;74.80;;;18.11;42.31;98391.03;5080229;27;20031;-81
2023/01/13 07:03:16;;;;;;;20.10;13.43;;;17.30;74.90;;;18.15;42.37;98384.56;5104996;27;20066;-80
2023/01/13 07:05:49;;;;;;;22.00;13.65;;;17.30;74.90;;;18.18;42.27;98385.84;5060310;27;20050;-80
2023/01/13 07:08:16;;;;;;;25.75;15.23;;;17.30;75.20;;;18.20;42.34;98391.81;5078082;28;20060;-80
2023/01/13 07:10:42;;;;;;;23.77;14.77;;;17.40;75.40;;;18.17;42.29;98393.28;5105577;28;20054;-80
2023/01/13 07:16:00;;;;;;;20.98;13.25;;;17.30;74.90;;;18.15;42.28;98401.03;5110448;28;20065;-80
2023/01/13 07:18:27;;;;;;;18.85;13.40;;;17.40;74.80;;;18.18;42.34;98396.81;5073920;28;20067;-80
2023/01/13 07:20:55;;;;;;;22.73;13.02;;;17.40;74.70;;;18.22;42.39;98397.78;5073208;28;20040;-80
2023/01/13 07:23:22;;;;;;;23.25;12.73;;;17.40;75.10;;;18.21;42.55;98404.38;5059017;28;20043;-80
2023/01/13 07:25:49;;;;;;;19.83;13.15;;;17.40;75.30;;;18.21;42.39;98401.63;5092459;28;20055;-80
2023/01/13 07:28:15;;;;;;;22.30;14.07;;;17.40;75.00;;;18.23;42.14;98396.63;5072722;28;20043;-80
2023/01/13 07:30:41;;;;;;;20.05;12.93;;;17.40;74.80;;;18.27;42.04;98385.75;5079380;28;20051;-82
2023/01/13 07:33:07;;;;;;;19.05;11.95;;;17.40;74.60;;;18.28;42.15;98379.94;5106286;28;20085;-80
2023/01/13 07:35:34;;;;;;;18.08;13.15;;;17.40;74.70;;;18.29;42.22;98388.97;5076462;28;20517;-81
2023/01/13 07:38:00;;;;;;;17.55;11.98;;;17.40;75.00;;;18.27;42.33;98386.59;5059281;28;20040;-81
2023/01/13 07:40:26;;;;;;;19.70;13.38;;;17.40;75.10;;;18.28;42.51;98379.16;5107516;28;20047;-80
2023/01/13 07:45:37;;;;;;;19.50;12.73;;;17.40;75.10;;;18.37;42.12;98393.63;5082805;28;20175;-80
2023/01/13 07:48:03;;;;;;;16.50;11.75;;;17.40;74.90;;;18.35;42.06;98384.91;5095373;28;20048;-80
2023/01/13 07:50:29;;;;;;;18.52;11.18;;;17.40;74.80;;;18.37;42.03;98382.66;5092292;28;20053;-80
2023/01/13 07:52:58;;;;;;;22.00;12.02;;;17.40;74.70;;;18.42;42.14;98380.50;5093107;28;20043;-80
2023/01/13 07:55:25;;;;;;;19.27;13.25;;;17.50;75.00;;;18.41;42.25;98376.13;5090335;28;20057;-80
2023/01/13 07:57:51;;;;;;;20.10;12.52;;;17.60;75.10;;;18.45;42.13;98381.75;5055726;28;20043;-81
2023/01/13 08:00:19;;;;;;;19.40;11.48;;;17.60;74.80;;;18.51;41.95;98385.09;5076994;28;20036;-81
2023/01/13 08:02:45;;;;;;;22.35;13.80;;;17.50;74.70;;;18.47;41.92;98390.47;5090884;28;20039;-82
2023/01/13 08:05:12;;;;;;;18.73;12.52;;;17.60;74.70;;;18.54;41.75;98379.72;5062440;28;20047;-81
2023/01/13 08:07:39;;;;;;;18.63;11.57;;;17.60;74.80;;;18.55;41.81;98372.31;5071823;28;20047;-80
2023/01/13 08:10:06;;;;;;;19.52;11.88;;;17.60;74.40;;;18.55;41.77;98386.06;5095266;28;20050;-81
2023/01/13 08:15:17;;;;;;;24.05;12.10;;;17.70;76.90;;;18.63;42.65;98376.91;5095427;28;20043;-80
2023/01/13 08:17:43;;;;;;;26.33;15.13;;;17.70;75.80;;;18.60;42.47;98377.59;5074272;28;20846;-80
2023/01/13 08:20:10;;;;;;;24.92;14.20;;;17.70;75.60;;;18.64;42.46;98378.50;5106643;28;20036;-80
2023/01/13 08:22:35;;;;;;;24.20;12.63;;;17.60;75.70;;;18.65;42.03;98375.44;5073139;28;20119;-80
2023/01/13 08:25:02;;;;;;;34.22;15.80;;;17.60;75.90;;;18.66;42.84;98370.75;5054735;28;20039;-80
2023/01/13 08:27:28;;;;;;;27.15;14.63;;;17.60;76.00;;;18.69;42.78;98374.75;5050269;28;20044;-80
2023/01/13 08:29:54;;;;;;;36.45;14.63;;;17.60;76.00;;;18.75;42.30;98373.41;5084748;28;20126;-79
2023/01/13 08:32:20;;;;;;;30.38;13.45;;;17.60;76.10;;;18.72;42.48;98365.84;5077531;28;20596;-79
2023/01/13 08:34:46;;;;;;;26.75;13.20;;;17.70;75.70;;;18.76;42.39;98364.84;5105164;28;20036;-79
2023/01/13 08:37:13;;;;;;;25.73;12.02;;;17.70;76.00;;;18.79;42.40;98366.13;5052552;28;20734;-80
2023/01/13 08:39:39;;;;;;;24.48;12.23;;;17.70;75.70;;;18.82;42.26;98368.19;5107727;28;20089;-80
2023/01/13 08:42:05;;;;;;;22.92;12.60;;;17.70;75.80;;;18.81;42.31;98377.59;5102240;28;20036;-80
2023/01/13 08:44:31;;;;;;;27.85;13.27;;;17.70;76.00;;;18.84;42.29;98374.97;5089338;28;20050;-79
2023/01/13 08:46:57;;;;;;;29.75;13.60;;;17.70;76.10;;;18.84;42.32;98376.91;5088627;28;20466;-79
2023/01/13 08:49:24;;;;;;;23.10;13.23;;;17.70;76.00;;;18.84;42.22;98377.69;5100939;28;20040;-80
2023/01/13 08:51:50;;;;;;;30.25;13.80;;;17.70;75.90;;;18.83;42.24;98381.59;5090855;28;20109;-80
2023/01/13 08:54:17;;;;;;;27.92;13.65;;;17.70;76.10;;;18.86;42.18;98374.63;5071167;28;20651;-80
2023/01/13 08:56:46;;;;;;;23.42;13.00;;;17.70;76.00;;;18.87;41.78;98387.22;5087725;28;20051;-80
2023/01/13 08:59:17;;;;;;;27.40;12.65;;;17.70;75.80;;;18.90;42.59;98389.28;5087608;28;20040;-80
2023/01/13 09:01:44;;;;;;;25.93;12.73;;;17.80;76.20;;;18.94;42.23;98387.47;5070867;28;20683;-80
2023/01/13 09:04:16;;;;;;;24.42;12.48;;;17.80;76.10;;;18.93;42.01;98385.06;5079870;28;20040;-81
2023/01/13 09:06:43;;;;;;;28.65;13.00;;;17.80;75.70;;;18.96;42.08;98373.41;5097892;28;20060;-80
2023/01/13 09:09:10;;;;;;;24.25;13.18;;;17.80;75.50;;;18.93;41.93;98366.63;5095508;28;20040;-81
2023/01/13 09:14:27;;;;;;;25.05;12.35;;;17.80;75.40;;;18.95;41.64;98361.59;5097751;28;20040;-80
2023/01/13 09:16:52;;;;;;;21.50;11.75;;;17.80;75.50;;;18.95;41.73;98367.09;5061766;28;20110;-79
2023/01/13 09:19:19;;;;;;;22.02;12.73;;;17.80;75.50;;;18.94;41.71;98367.44;5113526;27;20056;-79
2023/01/13 09:21:45;;;;;;;27.60;11.75;;;17.80;75.20;;;18.90;41.80;98370.03;5094262;28;20039;-79
2023/01/13 09:24:12;;;;;;;22.98;12.45;;;17.90;75.20;;;18.94;41.78;98373.72;5095658;28;20043;-80
2023/01/13 09:26:38;;;;;;;20.92;11.07;;;17.90;75.20;;;18.93;41.80;98368.56;5078416;28;20044;-78
2023/01/13 09:29:04;;;;;;;19.42;11.23;;;17.80;75.10;;;18.92;41.76;98378.75;5111070;28;20044;-80
2023/01/13 09:31:33;;;;;;;19.00;10.80;;;17.90;75.30;;;18.96;41.81;98371.44;5079111;28;20096;-79
2023/01/13 09:36:46;;;;;;;24.80;13.57;;;18.00;75.10;;;18.99;41.79;98357.03;5080799;28;20044;-78
2023/01/13 09:39:14;;;;;;;25.70;13.35;;;17.90;75.00;;;18.98;41.87;98363.69;5077393;28;20045;-80
2023/01/13 09:45:09;;;;;;;25.63;12.50;;;17.90;75.30;;;19.00;41.76;98360.56;5080886;28;20492;-78
2023/01/13 09:47:56;;;;;;;24.85;12.23;;;18.00;75.30;;;19.03;41.65;98351.63;5091821;28;20044;-78
2023/01/13 09:50:39;;;;;;;20.85;11.65;;;18.00;75.10;;;19.01;41.79;98352.00;5108588;28;20054;-79
2023/01/13 09:53:06;;;;;;;22.48;11.55;;;18.00;75.00;;;19.06;41.86;98345.47;5089304;28;20040;-78
2023/01/13 09:55:35;;;;;;;26.50;11.73;;;18.00;75.10;;;19.07;41.81;98355.31;5069683;27;20047;-78
2023/01/13 09:58:15;;;;;;;24.42;12.07;;;18.10;75.20;;;19.05;41.81;98346.59;5060380;28;20035;-78
2023/01/13 10:01:14;;;;;;;16.75;9.90;;;18.10;75.40;;;19.03;41.90;98340.63;5075376;28;20051;-78
2023/01/13 10:03:40;;;;;;;19.90;10.98;;;18.10;75.20;;;19.10;41.83;98340.88;5109022;28;20169;-78
2023/01/13 10:06:40;;;;;;;19.98;10.48;;;18.10;75.10;;;19.07;41.72;98341.59;5075549;28;20036;-78
2023/01/13 10:09:29;;;;;;;21.95;12.18;;;18.10;75.00;;;19.08;41.60;98344.00;5075634;28;20145;-78
2023/01/13 10:14:48;;;;;;;16.05;10.05;;;18.20;74.90;;;19.10;41.66;98346.38;5094383;28;20039;-77
2023/01/13 10:17:27;;;;;;;17.85;10.02;;;18.20;74.80;;;19.09;41.60;98345.59;5092812;28;20554;-78
2023/01/13 10:20:07;;;;;;;19.60;9.88;;;18.20;74.70;;;19.11;41.83;98339.75;5093017;28;20227;-78
2023/01/13 10:22:35;;;;;;;17.90;10.18;;;18.20;74.80;;;19.14;41.76;98341.81;5108659;28;20629;-78
2023/01/13 10:25:47;;;;;;;20.35;10.13;;;18.20;74.90;;;19.10;41.72;98332.66;5106219;28;20040;-78
2023/01/13 10:28:14;;;;;;;19.83;10.53;;;18.30;74.90;;;19.10;41.76;98329.91;5075956;28;20044;-78
2023/01/13 10:30:42;;;;;;;21.10;10.43;;;18.30;74.80;;;19.14;41.72;98319.03;5074613;28;20544;-78
2023/01/13 10:33:16;;;;;;;20.35;9.38;;;18.30;74.70;;;19.15;41.71;98321.44;5086991;28;20466;-77
2023/01/13 10:36:10;;;;;;;17.90;10.55;;;18.30;74.60;;;19.12;42.12;98322.13;5079210;28;20047;-77
2023/01/13 10:38:39;;;;;;;18.92;9.70;;;18.30;75.00;;;19.20;41.82;98320.41;5097646;28;20060;-78
2023/01/13 10:41:14;;;;;;;19.08;9.80;;;18.30;75.20;;;19.21;41.74;98309.06;5086945;28;20125;-78
2023/01/13 10:44:12;;;;;;;17.10;9.98;;;18.30;74.70;;;19.21;41.70;98309.06;5104567;27;20040;-78
2023/01/13 10:46:54;;;;;;;20.50;8.68;;;18.40;74.80;;;19.21;41.80;98300.81;5106135;28;20071;-78
2023/01/13 10:49:32;;;;;;;15.77;9.02;;;18.40;74.70;;;19.23;41.98;98294.97;5092658;28;20039;-80
2023/01/13 10:51:59;;;;;;;17.85;10.45;;;18.40;74.60;;;19.19;42.00;98294.88;5089652;28;20086;-79
2023/01/13 10:54:26;;;;;;;19.02;9.68;;;18.50;74.60;;;19.21;41.37;98289.00;5092925;28;20048;-78
2023/01/13 10:57:17;;;;;;;11.82;7.32;;;18.50;73.90;;;19.21;41.16;98291.75;5091470;28;20039;-79
2023/01/13 10:59:44;;;;;;;15.80;9.35;;;18.50;73.50;;;19.23;41.27;98289.47;5092979;28;20040;-79
2023/01/13 11:02:32;;;;;;;16.52;7.50;;;18.60;73.40;;;19.26;41.55;98286.84;5090991;28;20040;-79
2023/01/13 11:05:15;;;;;;;14.10;9.38;;;18.60;73.60;;;19.25;41.17;98287.19;5092655;28;20077;-78